createdAt,value
2022-08-29T00:04:55.325Z,82.00
2022-08-29T00:10:00.591Z,82.50
2022-08-29T00:15:05.529Z,82.90
2022-08-29T00:20:11.646Z,83.30
2022-08-29T00:25:17.201Z,83.70
2022-08-29T00:30:22.593Z,83.90
2022-08-29T00:35:29.858Z,84.30
2022-08-29T00:40:38.778Z,84.40
2022-08-29T00:45:47.881Z,84.80
2022-08-29T00:50:56.006Z,85.30
2022-08-29T00:56:01.931Z,85.60
2022-08-29T01:01:05.989Z,86.10
2022-08-29T01:06:10.535Z,86.10
2022-08-29T01:11:36.636Z,87.20
2022-08-29T01:16:41.014Z,86.80
2022-08-29T01:21:51.232Z,86.90
2022-08-29T01:26:56.867Z,87.00
2022-08-29T01:32:00.644Z,88.00
2022-08-29T01:37:07.010Z,87.20
2022-08-29T01:42:14.191Z,87.30
2022-08-29T01:47:18.403Z,87.50
2022-08-29T01:52:23.123Z,87.60
2022-08-29T01:57:28.366Z,87.30
2022-08-29T02:02:32.854Z,87.50
2022-08-29T02:07:36.748Z,87.70
2022-08-29T02:12:43.826Z,88.00
2022-08-29T02:17:48.549Z,88.30
2022-08-29T02:22:52.324Z,88.20
2022-08-29T02:27:59.772Z,88.50
2022-08-29T02:33:04.447Z,88.60
2022-08-29T02:38:10.232Z,88.80
2022-08-29T02:43:16.699Z,88.70
2022-08-29T02:48:20.469Z,88.70
2022-08-29T02:53:28.921Z,89.00
2022-08-29T02:58:34.252Z,88.90
2022-08-29T03:03:38.548Z,88.90
2022-08-29T03:08:42.507Z,89.80
2022-08-29T03:13:47.760Z,89.10
2022-08-29T03:18:51.542Z,89.30
2022-08-29T03:23:56.482Z,89.40
2022-08-29T03:29:01.709Z,89.40
2022-08-29T03:34:06.011Z,89.60
2022-08-29T03:39:09.980Z,89.60
2022-08-29T03:44:15.144Z,89.60
2022-08-29T03:49:18.829Z,89.80
2022-08-29T03:54:22.568Z,90.00
2022-08-29T03:59:27.589Z,90.00
2022-08-29T04:04:48.680Z,90.20
2022-08-29T04:09:52.326Z,90.30
2022-08-29T04:14:57.313Z,90.40
2022-08-29T04:20:00.988Z,90.60
2022-08-29T04:25:05.377Z,90.60
2022-08-29T04:30:14.553Z,90.50
2022-08-29T04:35:18.615Z,90.70
2022-08-29T04:40:23.406Z,90.70
2022-08-29T04:45:29.005Z,90.70
2022-08-29T04:50:32.760Z,90.90
2022-08-29T04:55:36.521Z,90.90
2022-08-29T05:00:41.537Z,91.00
2022-08-29T05:05:45.237Z,91.20
2022-08-29T05:10:48.896Z,91.50
2022-08-29T05:15:53.956Z,91.60
2022-08-29T05:20:57.600Z,91.60
2022-08-29T05:26:03.372Z,91.80
2022-08-29T05:31:13.785Z,91.70
2022-08-29T05:36:17.574Z,91.70
2022-08-29T05:41:21.279Z,91.80
2022-08-29T05:46:26.364Z,91.80
2022-08-29T05:51:37.221Z,92.10
2022-08-29T05:56:43.024Z,92.20
2022-08-29T06:01:48.070Z,92.10
2022-08-29T06:06:51.869Z,92.10
2022-08-29T06:11:57.665Z,92.20
2022-08-29T06:17:03.050Z,92.50
2022-08-29T06:22:10.011Z,92.20
2022-08-29T06:27:14.546Z,92.30
2022-08-29T06:32:19.567Z,92.30
2022-08-29T06:37:23.283Z,92.20
2022-08-29T06:42:28.638Z,92.10
2022-08-29T06:47:34.480Z,92.30
2022-08-29T06:52:38.130Z,92.20
2022-08-29T06:57:45.385Z,92.40
2022-08-29T07:02:51.780Z,92.00
2022-08-29T07:07:56.606Z,91.90
2022-08-29T07:13:00.713Z,91.80
2022-08-29T07:18:07.106Z,91.70
2022-08-29T07:23:11.492Z,91.50
2022-08-29T07:28:15.961Z,91.50
2022-08-29T07:33:21.775Z,91.40
2022-08-29T07:38:25.664Z,91.10
2022-08-29T07:43:29.748Z,91.20
2022-08-29T07:48:35.117Z,91.10
2022-08-29T07:53:38.925Z,90.80
2022-08-29T07:58:43.449Z,90.60
2022-08-29T08:03:48.876Z,90.60
2022-08-29T08:08:53.326Z,90.60
2022-08-29T08:13:58.301Z,90.50
2022-08-29T08:19:04.668Z,90.20
2022-08-29T08:24:09.565Z,90.10
2022-08-29T08:29:13.696Z,89.80
2022-08-29T08:34:18.932Z,89.30
2022-08-29T08:39:22.611Z,88.90
2022-08-29T08:44:49.532Z,89.00
2022-08-29T08:49:59.645Z,87.80
2022-08-29T08:55:12.515Z,87.50
2022-08-29T09:00:16.566Z,87.30
2022-08-29T09:05:35.865Z,86.50
2022-08-29T09:10:47.574Z,85.70
2022-08-29T09:15:55.913Z,85.80
2022-08-29T09:21:06.665Z,85.00
2022-08-29T09:26:16.444Z,84.40
2022-08-29T09:31:23.750Z,83.40
2022-08-29T09:36:47.458Z,81.80
2022-08-29T09:41:54.539Z,82.40
2022-08-29T09:47:11.249Z,82.70
2022-08-29T09:52:17.018Z,81.30
2022-08-29T09:57:24.095Z,79.40
2022-08-29T10:02:31.181Z,76.60
2022-08-29T10:07:47.488Z,75.30
2022-08-29T10:12:58.502Z,73.40
2022-08-29T10:18:23.891Z,72.20
2022-08-29T10:23:38.346Z,70.30
2022-08-29T10:28:51.603Z,70.00
2022-08-29T10:34:17.963Z,71.70
2022-08-29T10:39:34.826Z,70.30
2022-08-29T10:44:50.122Z,68.80
2022-08-29T10:50:21.761Z,67.90
2022-08-29T10:55:45.133Z,65.80
2022-08-29T11:00:55.055Z,63.80
2022-08-29T11:06:04.379Z,63.70
2022-08-29T11:11:09.817Z,60.80
2022-08-29T11:16:19.806Z,58.90
2022-08-29T11:21:31.676Z,60.00
2022-08-29T11:26:49.748Z,57.60
2022-08-29T11:32:01.548Z,56.40
2022-08-29T11:37:33.667Z,56.20
2022-08-29T11:42:56.989Z,55.30
2022-08-29T11:48:03.310Z,55.60
2022-08-29T11:53:11.616Z,56.00
2022-08-29T11:58:48.031Z,54.60
2022-08-29T12:03:52.175Z,53.00
2022-08-29T12:09:05.240Z,53.90
2022-08-29T12:14:35.555Z,53.60
2022-08-29T12:20:16.428Z,54.30
2022-08-29T12:25:45.744Z,53.20
2022-08-29T12:30:56.866Z,53.50
2022-08-29T12:36:24.922Z,54.40
2022-08-29T12:41:41.360Z,54.30
2022-08-29T12:46:47.396Z,54.20
2022-08-29T12:51:55.743Z,53.80
2022-08-29T12:57:00.343Z,53.80
2022-08-29T13:02:06.901Z,53.80
2022-08-29T13:07:16.938Z,54.00
2022-08-29T13:12:25.074Z,53.50
2022-08-29T13:17:34.807Z,54.00
2022-08-29T13:22:38.955Z,54.40
2022-08-29T13:27:42.806Z,54.70
2022-08-29T13:33:14.179Z,54.40
2022-08-29T13:38:31.598Z,54.80
2022-08-29T13:44:14.060Z,54.80
2022-08-29T13:49:29.490Z,55.00
2022-08-29T13:54:36.583Z,55.10
2022-08-29T13:59:41.137Z,55.30
2022-08-29T14:04:48.867Z,55.40
2022-08-29T14:09:53.202Z,55.60
2022-08-29T14:14:57.212Z,55.50
2022-08-29T14:20:02.274Z,55.60
2022-08-29T14:25:07.996Z,55.80
2022-08-29T14:30:14.467Z,56.00
2022-08-29T14:35:26.400Z,56.00
2022-08-29T14:40:36.606Z,56.20
2022-08-29T14:45:41.741Z,56.50
2022-08-29T14:50:48.902Z,56.80
2022-08-29T14:55:52.757Z,56.70
2022-08-29T15:01:00.157Z,56.90
2022-08-29T15:06:07.404Z,56.90
2022-08-29T15:11:11.918Z,56.80
2022-08-29T15:16:15.784Z,57.00
2022-08-29T15:21:21.014Z,57.00
2022-08-29T15:26:24.839Z,57.20
2022-08-29T15:31:30.053Z,57.30
2022-08-29T15:36:37.025Z,57.10
2022-08-29T15:41:41.104Z,57.40
2022-08-29T15:46:50.508Z,57.50
2022-08-29T15:51:57.403Z,57.70
2022-08-29T15:57:01.643Z,57.70
2022-08-29T16:02:05.879Z,57.80
2022-08-29T16:07:12.890Z,57.60
2022-08-29T16:12:16.870Z,57.50
2022-08-29T16:17:20.715Z,58.40
2022-08-29T16:22:28.047Z,57.90
2022-08-29T16:27:32.445Z,57.80
2022-08-29T16:32:36.899Z,57.80
2022-08-29T16:37:42.572Z,57.70
2022-08-29T16:42:55.446Z,58.00
2022-08-29T16:48:01.061Z,57.80
2022-08-29T16:53:07.421Z,58.00
2022-08-29T16:58:28.733Z,58.10
2022-08-29T17:03:33.744Z,58.10
2022-08-29T17:08:39.803Z,58.40
2022-08-29T17:13:43.175Z,58.30
2022-08-29T17:18:50.785Z,58.50
2022-08-29T17:23:59.376Z,58.50
2022-08-29T17:29:03.914Z,58.60
2022-08-29T17:34:09.690Z,58.20
2022-08-29T17:39:15.204Z,58.90
2022-08-29T17:44:19.610Z,59.10
2022-08-29T17:49:24.527Z,59.00
2022-08-29T17:54:32.962Z,59.00
2022-08-29T17:59:37.971Z,59.10
2022-08-29T18:04:41.945Z,59.00
2022-08-29T18:09:47.565Z,59.70
2022-08-29T18:14:52.539Z,59.40
2022-08-29T18:19:57.172Z,59.40
2022-08-29T18:25:02.760Z,59.60
2022-08-29T18:30:07.780Z,59.80
2022-08-29T18:35:12.157Z,59.90
2022-08-29T18:40:17.341Z,60.00
2022-08-29T18:45:21.205Z,60.10
2022-08-29T18:50:37.520Z,60.30
2022-08-29T18:55:50.502Z,60.60
2022-08-29T19:00:57.026Z,60.90
2022-08-29T19:06:01.458Z,61.10
2022-08-29T19:11:07.457Z,61.50
2022-08-29T19:16:11.441Z,61.40
2022-08-29T19:21:15.380Z,61.70
2022-08-29T19:26:23.062Z,62.20
2022-08-29T19:31:27.617Z,62.90
2022-08-29T19:36:31.469Z,63.50
2022-08-29T19:41:37.094Z,64.30
2022-08-29T19:46:40.796Z,64.80
2022-08-29T19:51:44.708Z,65.30
2022-08-29T19:56:49.776Z,65.90
2022-08-29T20:01:53.549Z,66.60
2022-08-29T20:07:00.108Z,67.20
2022-08-29T20:12:12.860Z,67.90
2022-08-29T20:17:16.495Z,68.80
2022-08-29T20:22:23.824Z,68.90
2022-08-29T20:27:34.288Z,69.80
2022-08-29T20:32:38.660Z,70.40
2022-08-29T20:37:42.666Z,71.20
2022-08-29T20:42:53.930Z,71.70
2022-08-29T20:47:59.267Z,72.40
2022-08-29T20:53:08.309Z,73.50
2022-08-29T20:58:18.999Z,73.90
2022-08-29T21:03:40.338Z,74.60
2022-08-29T21:08:44.535Z,75.20
2022-08-29T21:13:53.323Z,75.90
2022-08-29T21:18:57.591Z,76.20
2022-08-29T21:24:01.263Z,77.30
2022-08-29T21:29:09.320Z,78.40
2022-08-29T21:34:14.382Z,78.40
2022-08-29T21:39:27.969Z,79.00
2022-08-29T21:44:34.188Z,79.60
2022-08-29T21:49:39.318Z,80.10
2022-08-29T21:54:43.016Z,80.70
2022-08-29T21:59:48.516Z,81.20
2022-08-29T22:04:52.205Z,81.90
2022-08-29T22:09:55.956Z,82.30
2022-08-29T22:15:18.500Z,82.80
2022-08-29T22:20:22.436Z,83.10
2022-08-29T22:25:26.160Z,83.70
2022-08-29T22:30:32.456Z,84.20
2022-08-29T22:35:37.342Z,84.50
2022-08-29T22:40:41.382Z,85.20
2022-08-29T22:45:46.501Z,85.40
2022-08-29T22:50:58.105Z,86.00
2022-08-29T22:56:02.391Z,86.30
2022-08-29T23:01:08.078Z,86.50
2022-08-29T23:06:11.863Z,86.80
2022-08-29T23:11:16.287Z,87.40
2022-08-29T23:16:21.868Z,87.80
2022-08-29T23:21:25.681Z,87.90
2022-08-29T23:26:29.510Z,88.30
2022-08-29T23:31:34.701Z,88.70
2022-08-29T23:36:38.690Z,88.80
2022-08-29T23:41:42.459Z,89.20
2022-08-29T23:46:47.601Z,89.40
2022-08-29T23:51:51.590Z,89.90
2022-08-29T23:56:55.543Z,89.90
